Relevés horaires St-Hubert (Belgique)


Relevés horaires à St-Hubert - Mercredi 15 Mai 2019
Heure UTC1 Température [°C] Vent [km/h] Hum. [%] Pres.4 [hPa] Visi. [Km] Nébu. [octa] Préc.5 [mm] Cond.
2m. Res. Ros. Dir.2 Vit. Moy. Raf.3
23:00 4.3 2.5 -0.8 ENE 7.4 7.4 11.1 69 1022.7(-0.8/3h) 45 0/8 -- --
22:00 4.5 3.3 -1.2 ENE 5.6 7.4 9.3 66 1023(-0.4/3h) 45 0/8 -- --
21:00 7.4 6.6 -3.2 ENE 5.6 7.4 13.0 47 1022.8(0.1/3h) 45 0/8 -- --
20:00 7.1 7.1 -2.8 NE 3.7 3.7 7.4 49 1022.8(-0.1/3h) 45 0/8 -- --
19:00 10.7 10.7 -4.9 ENE 3.7 7.4 13.0 33 1021.9(-0.2/3h) 45 0/8 -- --
18:00 12.2 11.7 -5.7 NE 7.4 11.1 18.5 28 1021.5(-0.5/3h) 40 0/8 0/12h
--
17:00 13.0 12.3 -6.5 NE 9.3 9.3 16.7 25 1021.6(-0.7/3h) 45 0/8 -- --
16:00 13.3 12.7 -6.6 NNO 9.3 11.1 16.7 24 1021.6(-0.9/3h) 40 0/8 -- --
15:00 13.5 12.7 -7.7 NE 11.1 11.1 18.5 22 1021.8(-1.2/3h) 30 0/8 -- --
14:00 13.4 13.1 -3.1 ENE 7.4 11.1 18.5 32 1022.2(-1.2/3h) 35 0/8 -- --
13:00 12.7 12 -4.3 NE 9.3 9.3 18.5 30 1022.7(-1.5/3h) 30 0/8 -- --
12:00 12.4 11.9 -5.7 ENE 7.4 11.1 18.5 28 1023.3(-1.7/3h) 30 0/8 0/6h
--
11:00 11.8 10.9 -4.9 NNE 9.3 11.1 18.5 31 1023.9(-1.6/3h) 40 0/8 -- --
10:00 11.1 9.8 -5.7 ENE 11.1 11.1 16.7 30 1024.7(-1.2/3h) 40 0/8 -- --
09:00 9.7 8.4 -4.1 NE 9.3 11.1 16.7 37 1025.7(-0.7/3h) 40 0/8 -- --
08:00 8.4 6.5 -2.4 NE 11.1 11.1 16.7 46 1026.4(-0.4/3h) 40 0/8 -- --
07:00 6.9 6 -1.7 NE 5.6 5.6 9.3 54 1027(0.1/3h) 40 0/8 -- --
06:00 5.3 5.3 -1.8 NNE 3.7 7.4 11.1 60 1027.5(0.1/3h) 35 0/8 0/12h
--
05:00 3.4 2 -1.5 NE 5.6 7.4 9.3 70 1028.1(0.0/3h) 45 0/8 -- --
04:00 2.9 1.5 -1.7 ENE 5.6 7.4 9.3 72 1028.1(-0.6/3h) 50 0/8 -- --
03:00 1.3 -0.4 -1.3 ENE 5.6 7.4 11.1 83 1028.6(-1.0/3h) 50 0/8 -- --
02:00 1.6 -0 -1.0 NE 5.6 5.6 11.1 83 1028.5(-1.2/3h) 45 0/8 -- --
01:00 3.0 1.6 -0.1 ENE 5.6 7.4 9.3 80 1028.6(-1.0/3h) 45 0/8 -- --
00:00 5.1 3.4 -0.2 ENE 7.4 9.3 16.7 69 1028.7(-0.5/3h) 45 0/8 0/6h
0/24h
--

1 Coordinated Universal Time. Actuellement il est 06:00 locale et 04:00 UTC.

2 Le vent souffle depuis la direction indiquée vers la direction oposée.

3 Les rafales max. sont disponible 40 min après l'heure du relevé.

4 Pour les stations d'altitude (plus de 600m) le géopotentiel du niveau le plus proche de la pression obligatoire est indiqué.

5 Les stations disposant d'un diffuseur peuvent indiquer "trace". Cela signifie que des précipitations ont touchés le sol mais que la quantité est inférieure à 0.1 mm.

Récapitulatif de la journée
Température [°C] Vent [km/h] Ensoleillement4 [h] Precipitations totale5 [mm] Pression [Hpa]
Min1 Max.2 Moy.3 Max. Min Max.
0.7 14.0 8.7 18.5 0 h 0 min 0 1021.5 1028.7

1 Température minimale relevée entre 18:00 UTC la veille et 18:00 UTC le jour donné.

2 Température maximale relevée entre 06:00 UTC le jour donné et 06:00 UTC le lendemain.

3 Vent moyen de la journée basé sur les relevés horaires.

4 Ensoleillement en heures relevé entre 06:00 UTC la veille et 06:00 UTC le jour donné.

5 Précipitations totales tombées entre 06:00 UTC la jour donné et 06:00 UTC le lendemain.

Graphiques horaires